Time;durP1;ratioP1;P1;durP2;ratioP2;P2;SDS_P1;SDS_P2;PMS_P1;PMS_P2;Temp;Humidity;BMP_temperature;BMP_pressure;BME280_temperature;BME280_humidity;BME280_pressure;Samples;Min_cycle;Max_cycle;Signal;HPM_P1;HPM_P2
2023/09/11 00:01:18;;;;;;;4.97;1.42;;;;;;;17.71;76.22;100763.97;5051749;28;20044;-66
2023/09/11 00:03:44;;;;;;;4.35;1.30;;;;;;;17.37;76.78;100766.13;5051313;28;20048;-67
2023/09/11 00:06:10;;;;;;;4.80;1.67;;;;;;;17.06;77.89;100735.28;5050971;28;20096;-68
2023/09/11 00:08:35;;;;;;;4.15;1.48;;;;;;;17.12;78.47;100755.34;5051250;28;20029;-67
2023/09/11 00:11:01;;;;;;;4.90;1.38;;;;;;;16.49;79.32;100671.78;5051402;28;20029;-67
2023/09/11 00:13:27;;;;;;;4.32;1.90;;;;;;;16.77;80.41;100756.53;5050984;28;20446;-67
2023/09/11 00:15:53;;;;;;;6.38;1.60;;;;;;;16.32;81.02;100693.25;5033219;28;20063;-66
2023/09/11 00:18:18;;;;;;;5.55;2.13;;;;;;;16.40;82.05;100736.78;5051105;28;20429;-67
2023/09/11 00:20:44;;;;;;;3.80;1.63;;;;;;;16.49;82.33;100732.59;5049179;28;20033;-67
2023/09/11 00:23:09;;;;;;;2.42;1.33;;;;;;;16.78;82.09;100760.00;5051198;28;20473;-67
2023/09/11 00:25:35;;;;;;;2.97;1.85;;;;;;;16.37;82.03;100684.63;5051266;28;20052;-66
2023/09/11 00:28:01;;;;;;;3.38;1.50;;;;;;;16.74;82.90;100750.41;5050917;28;20021;-67
2023/09/11 00:30:26;;;;;;;2.70;1.45;;;;;;;16.80;81.32;100753.09;5049483;28;20047;-67
2023/09/11 00:32:52;;;;;;;2.22;1.42;;;;;;;16.91;80.68;100762.00;5050991;28;20021;-67
2023/09/11 00:35:17;;;;;;;2.53;1.17;;;;;;;17.02;79.97;100753.44;5050574;28;20799;-67
2023/09/11 00:37:43;;;;;;;3.25;1.55;;;;;;;16.79;80.37;100746.13;5050544;28;20020;-67
2023/09/11 00:40:08;;;;;;;5.25;1.65;;;;;;;16.46;82.74;100760.34;5050575;28;20048;-67
2023/09/11 00:42:34;;;;;;;5.72;1.58;;;;;;;15.87;85.94;100756.66;5050729;28;20025;-66
2023/09/11 00:44:59;;;;;;;1.77;1.27;;;;;;;15.66;87.01;100752.75;5050617;28;20025;-66
2023/09/11 00:47:25;;;;;;;4.32;1.65;;;;;;;15.47;88.54;100758.41;5050647;28;20021;-66
2023/09/11 00:49:52;;;;;;;5.18;1.58;;;;;;;15.26;89.97;100761.41;5050632;28;20457;-66
2023/09/11 00:52:18;;;;;;;2.65;1.30;;;;;;;14.64;90.84;100682.88;5050637;28;20024;-67
2023/09/11 00:54:43;;;;;;;4.20;1.40;;;;;;;14.69;92.21;100721.97;5032862;28;20087;-66
2023/09/11 00:57:09;;;;;;;3.38;1.50;;;;;;;14.67;92.72;100729.72;5050324;28;20484;-67
2023/09/11 00:59:35;;;;;;;3.92;1.40;;;;;;;14.71;93.61;100754.94;5050648;28;20467;-66
2023/09/11 01:02:01;;;;;;;2.55;1.60;;;;;;;14.19;94.01;100670.47;5050300;28;20025;-67
2023/09/11 01:04:28;;;;;;;3.55;1.63;;;;;;;14.55;94.51;100756.28;5049831;28;20215;-67
2023/09/11 01:06:53;;;;;;;2.88;1.58;;;;;;;14.56;94.84;100757.13;5049503;28;20085;-67
2023/09/11 01:09:19;;;;;;;3.33;1.42;;;;;;;14.57;94.85;100764.09;5050096;28;20037;-64
2023/09/11 01:11:44;;;;;;;3.33;1.50;;;;;;;14.44;95.25;100754.22;5049944;28;20485;-63
2023/09/11 01:14:10;;;;;;;3.75;1.58;;;;;;;14.43;94.43;100750.75;5050320;28;20029;-63
2023/09/11 01:16:56;;;;;;;6.15;1.73;;;;;;;14.21;94.37;100693.06;5049664;28;20396;-63
2023/09/11 01:19:50;;;;;;;3.88;1.90;;;;;;;14.81;92.73;100757.78;5050297;28;20550;-64
2023/09/11 01:22:25;;;;;;;5.13;1.60;;;;;;;15.05;92.49;100752.25;5050195;28;20029;-65
2023/09/11 01:24:59;;;;;;;5.70;1.50;;;;;;;15.27;90.16;100763.19;5050298;28;20029;-63
2023/09/11 01:27:53;;;;;;;4.90;1.60;;;;;;;15.29;89.20;100756.25;5049573;28;20021;-64
2023/09/11 01:30:21;;;;;;;3.10;1.75;;;;;;;14.87;89.12;100688.59;5050490;28;20017;-64
2023/09/11 01:32:47;;;;;;;4.63;1.50;;;;;;;15.34;87.21;100754.66;5032459;28;20477;-65
2023/09/11 01:35:13;;;;;;;3.90;1.50;;;;;;;15.49;85.92;100752.38;5049954;28;20025;-64
2023/09/11 01:37:38;;;;;;;3.25;1.38;;;;;;;15.61;84.56;100748.28;5049851;28;20082;-65
2023/09/11 01:40:05;;;;;;;3.92;1.58;;;;;;;15.73;83.23;100747.66;5050578;28;20182;-65
2023/09/11 01:42:34;;;;;;;6.20;1.58;;;;;;;15.79;82.17;100738.25;5050247;28;20072;-64
2023/09/11 01:45:00;;;;;;;3.50;1.65;;;;;;;15.79;82.06;100737.38;5050091;28;20200;-63
2023/09/11 01:47:28;;;;;;;4.85;1.60;;;;;;;15.73;80.77;100737.25;5050352;28;20047;-65
2023/09/11 01:49:56;;;;;;;3.60;1.42;;;;;;;15.47;82.91;100753.19;5050251;28;20032;-64
2023/09/11 01:52:22;;;;;;;2.60;1.40;;;;;;;15.30;84.41;100753.72;5049956;28;20453;-64
2023/09/11 01:54:49;;;;;;;5.07;1.70;;;;;;;15.29;85.31;100746.75;5049830;28;20018;-63
2023/09/11 01:57:15;;;;;;;3.60;1.75;;;;;;;14.90;85.12;100672.19;5032042;28;20052;-64
2023/09/11 01:59:41;;;;;;;3.08;1.55;;;;;;;15.13;83.75;100734.25;5032215;28;20052;-64
2023/09/11 02:02:06;;;;;;;2.30;1.67;;;;;;;15.08;84.95;100756.66;5049881;28;20476;-67
2023/09/11 02:04:31;;;;;;;3.38;1.80;;;;;;;15.02;86.56;100762.59;5050147;28;20381;-65
2023/09/11 02:06:57;;;;;;;7.97;2.35;;;;;;;14.88;86.79;100725.91;5049725;28;20029;-62
2023/09/11 02:09:22;;;;;;;4.20;1.80;;;;;;;15.11;85.61;100757.59;5049871;28;20025;-64
2023/09/11 02:11:48;;;;;;;4.38;1.55;;;;;;;15.18;84.19;100751.72;5050068;28;20110;-64
2023/09/11 02:14:13;;;;;;;4.60;1.70;;;;;;;15.25;83.24;100751.84;5049931;28;20035;-64
2023/09/11 02:16:38;;;;;;;6.95;2.28;;;;;;;15.31;82.76;100754.59;5050007;28;20021;-66
2023/09/11 02:19:04;;;;;;;4.18;1.85;;;;;;;15.34;82.31;100752.94;5049857;28;20029;-66
2023/09/11 02:21:29;;;;;;;5.75;2.10;;;;;;;15.03;82.08;100692.44;5049250;28;20057;-65
2023/09/11 02:23:55;;;;;;;5.10;1.88;;;;;;;15.40;81.61;100757.38;5049698;28;20029;-63
2023/09/11 02:26:20;;;;;;;4.90;2.10;;;;;;;15.28;81.55;100757.13;5049685;28;20078;-65
2023/09/11 02:28:45;;;;;;;4.55;1.80;;;;;;;14.93;83.12;100741.56;5049973;28;20116;-64
2023/09/11 02:31:11;;;;;;;4.32;1.90;;;;;;;14.81;84.71;100768.16;5049612;28;20064;-64
2023/09/11 02:33:37;;;;;;;6.97;2.85;;;;;;;14.40;87.03;100746.38;5031855;28;20059;-63
2023/09/11 02:36:02;;;;;;;7.00;2.20;;;;;;;14.36;87.90;100751.44;5049676;28;20032;-69
2023/09/11 02:38:28;;;;;;;6.18;2.30;;;;;;;14.22;89.03;100756.28;5049931;28;20021;-66
2023/09/11 02:40:54;;;;;;;7.78;2.33;;;;;;;14.20;89.49;100757.94;5053667;28;20036;-65
2023/09/11 02:43:19;;;;;;;4.57;1.95;;;;;;;13.89;89.48;100687.03;5053258;28;20112;-65
2023/09/11 02:45:45;;;;;;;4.60;2.10;;;;;;;14.33;87.76;100756.53;5053456;28;20025;-65
2023/09/11 02:48:11;;;;;;;6.32;2.45;;;;;;;14.36;87.33;100759.22;5053395;28;20032;-64
2023/09/11 02:50:40;;;;;;;3.65;2.28;;;;;;;14.11;87.26;100757.69;5052941;28;20558;-66
2023/09/11 02:53:09;;;;;;;5.15;2.70;;;;;;;13.96;87.80;100748.66;5053429;28;20025;-64
2023/09/11 02:55:38;;;;;;;6.47;2.22;;;;;;;13.75;88.85;100744.59;5052974;28;20025;-65
2023/09/11 02:58:04;;;;;;;4.25;2.08;;;;;;;13.89;90.13;100750.19;5053368;28;20060;-65
2023/09/11 03:00:29;;;;;;;4.10;2.25;;;;;;;13.92;89.41;100749.41;5052915;28;20119;-70
2023/09/11 03:02:56;;;;;;;5.22;2.20;;;;;;;14.13;88.32;100745.63;5052948;28;20094;-64
2023/09/11 03:05:22;;;;;;;6.63;2.70;;;;;;;14.22;86.72;100735.50;5052683;28;20025;-65
2023/09/11 03:07:47;;;;;;;7.38;2.47;;;;;;;14.44;86.11;100755.09;5052940;28;20052;-65
2023/09/11 03:10:13;;;;;;;4.63;2.10;;;;;;;14.03;85.80;100669.22;5035041;28;20025;-70
2023/09/11 03:12:38;;;;;;;8.82;2.75;;;;;;;14.46;85.70;100749.94;5052902;28;20017;-64
2023/09/11 03:15:04;;;;;;;6.05;2.17;;;;;;;14.36;85.44;100744.50;5052828;28;20021;-68
2023/09/11 03:17:30;;;;;;;9.65;2.53;;;;;;;13.56;86.42;100657.59;5052880;28;20025;-70
2023/09/11 03:19:57;;;;;;;8.98;3.55;;;;;;;13.89;87.61;100731.13;5052822;28;20498;-65
2023/09/11 03:22:22;;;;;;;6.35;2.33;;;;;;;13.93;88.65;100758.06;5052772;28;20060;-65
2023/09/11 03:24:48;;;;;;;7.88;2.75;;;;;;;14.03;89.67;100758.38;5052761;28;20460;-63
2023/09/11 03:27:13;;;;;;;7.00;2.08;;;;;;;14.07;87.90;100752.41;5052791;28;20021;-63
2023/09/11 03:29:40;;;;;;;6.97;2.25;;;;;;;14.03;85.73;100749.69;5052518;28;20033;-65
2023/09/11 03:32:06;;;;;;;5.15;2.42;;;;;;;14.15;85.32;100750.00;5052770;28;20028;-66
2023/09/11 03:34:31;;;;;;;8.35;2.50;;;;;;;13.96;85.90;100752.97;5052310;28;20029;-65
2023/09/11 03:36:57;;;;;;;5.55;2.65;;;;;;;13.74;88.28;100755.84;5052631;28;20485;-65
2023/09/11 03:39:22;;;;;;;4.93;2.30;;;;;;;13.81;87.03;100756.88;5052369;28;20036;-65
2023/09/11 03:41:47;;;;;;;8.32;2.67;;;;;;;13.61;85.44;100699.25;5052604;28;20035;-65
2023/09/11 03:44:13;;;;;;;6.40;2.60;;;;;;;14.02;84.76;100769.59;5052517;28;20029;-64
2023/09/11 03:46:39;;;;;;;5.63;2.83;;;;;;;13.95;85.82;100754.66;5052317;28;20024;-65
2023/09/11 03:49:04;;;;;;;6.03;3.25;;;;;;;14.05;86.57;100769.66;5052280;28;20032;-63
2023/09/11 03:51:29;;;;;;;6.47;3.47;;;;;;;14.03;85.77;100770.44;5051589;28;20456;-66
2023/09/11 03:53:58;;;;;;;7.85;3.65;;;;;;;13.94;85.41;100768.47;5052298;28;20475;-64
2023/09/11 03:56:23;;;;;;;4.85;2.58;;;;;;;14.01;84.78;100773.00;5051994;28;20033;-65
2023/09/11 03:58:51;;;;;;;6.65;2.75;;;;;;;13.92;83.67;100752.00;5052222;28;20036;-65
2023/09/11 04:01:16;;;;;;;4.43;2.60;;;;;;;13.60;83.30;100715.63;5051810;28;20025;-67
2023/09/11 04:03:42;;;;;;;6.72;2.60;;;;;;;13.11;82.95;100630.38;5052122;28;20033;-65
2023/09/11 04:06:08;;;;;;;6.97;2.28;;;;;;;14.03;83.56;100776.53;5051958;28;20032;-64
2023/09/11 04:08:36;;;;;;;7.13;2.63;;;;;;;13.98;84.17;100779.81;5052141;28;20523;-64
2023/09/11 04:11:01;;;;;;;6.05;2.60;;;;;;;13.67;84.42;100768.56;5051698;28;20496;-66
2023/09/11 04:13:27;;;;;;;7.45;2.60;;;;;;;13.06;88.83;100786.56;5043882;28;20051;-64
2023/09/11 04:15:52;;;;;;;7.07;2.40;;;;;;;13.07;90.31;100765.91;5051757;28;20021;-66
2023/09/11 04:18:18;;;;;;;7.53;2.83;;;;;;;12.74;89.42;100683.66;5044609;28;20478;-65
2023/09/11 04:20:43;;;;;;;5.78;3.55;;;;;;;13.33;89.76;100772.72;5031830;28;20033;-65
2023/09/11 04:23:09;;;;;;;10.55;3.92;;;;;;;13.47;90.32;100789.63;5036728;28;20029;-67
2023/09/11 04:25:34;;;;;;;7.90;2.92;;;;;;;13.50;90.17;100787.13;5051401;28;20682;-64
2023/09/11 04:28:00;;;;;;;8.55;3.20;;;;;;;13.22;90.55;100757.72;5051618;28;20033;-66
2023/09/11 04:30:25;;;;;;;10.60;2.88;;;;;;;13.31;91.38;100771.78;5051391;28;20040;-64
2023/09/11 04:32:51;;;;;;;5.15;3.00;;;;;;;13.17;90.98;100724.72;5051141;28;20036;-66
2023/09/11 04:35:18;;;;;;;4.95;2.90;;;;;;;13.48;91.61;100790.50;5051498;28;20437;-64
2023/09/11 04:37:44;;;;;;;6.68;2.83;;;;;;;13.53;91.89;100792.41;5051248;28;20109;-65
2023/09/11 04:40:10;;;;;;;8.25;2.70;;;;;;;13.54;92.05;100790.69;5051254;28;20072;-64
2023/09/11 04:42:36;;;;;;;5.30;2.78;;;;;;;13.45;91.91;100772.28;5051480;28;20387;-63
2023/09/11 04:45:01;;;;;;;12.30;2.92;;;;;;;13.54;91.45;100791.56;5051188;28;20047;-65
2023/09/11 04:47:31;;;;;;;5.20;2.50;;;;;;;13.47;91.25;100793.91;5051214;28;20488;-64
2023/09/11 04:49:57;;;;;;;5.13;2.67;;;;;;;13.06;91.30;100714.91;5051163;28;20538;-64
2023/09/11 04:52:22;;;;;;;4.65;2.63;;;;;;;13.59;91.53;100790.00;5050954;28;20036;-65
2023/09/11 04:54:48;;;;;;;5.38;2.35;;;;;;;13.69;91.87;100795.44;5051267;28;20032;-65
2023/09/11 04:57:13;;;;;;;6.25;2.30;;;;;;;13.73;91.86;100800.78;5051114;28;20496;-65
2023/09/11 04:59:41;;;;;;;7.65;2.50;;;;;;;13.73;91.89;100777.44;4998951;28;20033;-67
2023/09/11 05:02:07;;;;;;;8.60;2.85;;;;;;;13.84;92.04;100790.69;5033021;28;20047;-65
2023/09/11 05:04:33;;;;;;;6.80;2.50;;;;;;;13.87;92.94;100789.94;5050819;28;20033;-64
2023/09/11 05:06:58;;;;;;;10.23;2.90;;;;;;;13.88;93.92;100792.56;5050712;28;20082;-68
2023/09/11 05:09:23;;;;;;;7.10;2.92;;;;;;;13.40;94.76;100710.75;5033009;28;20369;-64
2023/09/11 05:11:49;;;;;;;7.35;3.30;;;;;;;13.83;95.64;100786.38;5050690;28;20036;-64
2023/09/11 05:14:14;;;;;;;6.28;2.80;;;;;;;13.40;95.75;100697.78;5050706;28;20108;-65
2023/09/11 05:16:40;;;;;;;5.82;2.97;;;;;;;13.97;95.77;100781.56;4999051;28;20075;-69
2023/09/11 05:19:05;;;;;;;3.75;2.65;;;;;;;13.68;95.89;100723.63;5050456;28;20017;-68
2023/09/11 05:21:32;;;;;;;7.80;3.03;;;;;;;13.05;96.51;100645.75;5050256;28;20021;-64
2023/09/11 05:23:57;;;;;;;7.10;3.08;;;;;;;13.37;99.12;100759.00;5050403;28;20060;-65
2023/09/11 05:26:23;;;;;;;5.72;2.83;;;;;;;13.26;99.10;100702.53;5050232;28;20033;-64
2023/09/11 05:28:48;;;;;;;6.45;2.78;;;;;;;13.96;98.64;100794.50;5050160;28;20032;-65
2023/09/11 05:31:14;;;;;;;5.82;3.20;;;;;;;13.62;100.00;100794.41;5050323;28;20036;-65
2023/09/11 05:33:39;;;;;;;4.78;3.03;;;;;;;13.52;100.00;100777.69;5050378;28;20614;-66
2023/09/11 05:36:05;;;;;;;8.73;2.67;;;;;;;13.72;100.00;100778.25;5050352;28;20025;-65
2023/09/11 05:38:30;;;;;;;6.03;2.55;;;;;;;13.97;100.00;100794.53;5050323;28;20112;-64
2023/09/11 05:40:56;;;;;;;5.53;2.92;;;;;;;14.21;99.50;100796.06;5050162;28;20037;-65
2023/09/11 05:43:21;;;;;;;6.07;2.78;;;;;;;14.40;98.80;100792.22;5050041;28;20083;-65
2023/09/11 05:45:47;;;;;;;6.93;3.35;;;;;;;14.59;97.70;100777.97;5049871;28;20040;-63
2023/09/11 05:48:14;;;;;;;6.18;3.13;;;;;;;14.92;96.30;100797.91;5050356;28;20395;-65
2023/09/11 05:50:39;;;;;;;6.38;3.20;;;;;;;15.06;95.90;100799.97;5032307;28;20116;-65
2023/09/11 05:53:07;;;;;;;7.85;4.43;;;;;;;15.19;95.39;100802.03;5050073;28;20131;-65
2023/09/11 05:55:33;;;;;;;7.55;4.95;;;;;;;14.99;94.20;100732.22;5032016;28;20072;-64
2023/09/11 05:57:59;;;;;;;7.60;3.60;;;;;;;15.21;93.90;100792.50;4997980;28;20168;-65
2023/09/11 06:00:26;;;;;;;11.55;4.07;;;;;;;15.18;95.16;100790.72;5049514;28;20425;-65
2023/09/11 06:02:52;;;;;;;5.82;2.88;;;;;;;15.08;95.47;100773.16;5049817;28;20033;-64
2023/09/11 06:05:19;;;;;;;5.90;2.40;;;;;;;15.41;95.45;100792.97;5049948;28;20025;-64
2023/09/11 06:07:44;;;;;;;5.03;2.83;;;;;;;15.66;93.93;100806.50;5049899;28;20040;-64
2023/09/11 06:10:12;;;;;;;4.10;2.50;;;;;;;15.48;92.91;100747.16;5049963;28;20503;-65
2023/09/11 06:12:38;;;;;;;7.30;3.38;;;;;;;15.80;93.64;100786.88;5030991;28;20044;-66
2023/09/11 06:15:04;;;;;;;5.90;2.63;;;;;;;15.95;93.41;100796.75;5053255;28;20081;-64
2023/09/11 06:17:31;;;;;;;6.60;2.70;;;;;;;15.90;93.41;100787.06;5053271;28;20040;-68
2023/09/11 06:19:56;;;;;;;7.97;2.83;;;;;;;16.06;94.30;100801.28;5053166;28;20059;-64
2023/09/11 06:22:22;;;;;;;17.48;3.33;;;;;;;16.27;91.98;100803.44;5053253;28;20486;-67
2023/09/11 06:24:47;;;;;;;8.38;2.85;;;;;;;15.95;92.35;100726.44;5052987;28;20070;-66
2023/09/11 06:27:13;;;;;;;5.65;2.58;;;;;;;16.52;90.54;100811.69;5035132;28;20055;-65
2023/09/11 06:29:39;;;;;;;8.52;2.90;;;;;;;16.37;91.00;100814.91;5017494;28;20098;-66
2023/09/11 06:32:05;;;;;;;5.22;2.55;;;;;;;16.20;91.95;100784.22;5053250;28;20049;-64
2023/09/11 06:34:31;;;;;;;6.00;2.78;;;;;;;16.46;92.58;100812.47;5053144;28;20052;-66
2023/09/11 06:36:59;;;;;;;7.53;2.38;;;;;;;16.62;90.77;100816.22;5053086;28;20032;-64
2023/09/11 06:39:24;;;;;;;5.28;2.83;;;;;;;16.84;89.66;100819.22;5053391;28;20109;-65
2023/09/11 06:41:50;;;;;;;8.07;2.88;;;;;;;17.06;88.22;100816.13;5053499;28;20504;-63
2023/09/11 06:44:15;;;;;;;6.00;2.67;;;;;;;16.70;88.78;100725.09;5053388;28;20033;-63
2023/09/11 06:46:41;;;;;;;4.57;2.70;;;;;;;17.53;86.52;100815.06;5053434;28;20032;-64
2023/09/11 06:49:06;;;;;;;7.95;2.90;;;;;;;17.70;86.42;100809.22;5034640;28;20040;-65
2023/09/11 06:51:33;;;;;;;4.75;2.75;;;;;;;17.43;85.29;100733.16;5043705;28;20119;-67
2023/09/11 06:53:58;;;;;;;9.75;2.70;;;;;;;17.69;86.27;100773.50;5050729;28;20020;-65
2023/09/11 06:56:24;;;;;;;6.60;2.22;;;;;;;17.80;85.07;100787.56;5052975;28;20098;-64
2023/09/11 06:58:49;;;;;;;9.52;2.30;;;;;;;17.60;84.84;100725.53;5052765;28;20125;-64
2023/09/11 07:01:15;;;;;;;11.18;2.50;;;;;;;18.38;84.32;100802.19;5048370;28;20404;-66
2023/09/11 07:03:40;;;;;;;5.45;2.55;;;;;;;18.46;83.88;100802.28;5049570;28;20021;-64
2023/09/11 07:06:06;;;;;;;8.23;1.98;;;;;;;18.52;82.51;100791.88;5066907;28;20028;-65
2023/09/11 07:08:31;;;;;;;6.72;2.30;;;;;;;18.75;82.84;100807.75;5072494;28;20029;-66
2023/09/11 07:10:57;;;;;;;9.82;1.80;;;;;;;18.85;81.55;100808.72;5036716;28;20456;-65
2023/09/11 07:13:22;;;;;;;5.40;2.30;;;;;;;18.92;79.75;100806.19;5072418;28;20032;-65
2023/09/11 07:15:55;;;;;;;4.07;1.60;;;;;;;19.12;78.38;100815.94;5071857;28;20029;-65
2023/09/11 07:18:21;;;;;;;6.07;1.90;;;;;;;19.19;78.58;100817.75;5053149;28;20093;-73
2023/09/11 07:20:46;;;;;;;13.10;2.10;;;;;;;19.37;76.99;100818.72;5072038;28;20025;-67
2023/09/11 07:23:12;;;;;;;6.07;1.60;;;;;;;19.58;77.50;100807.50;5060674;28;20032;-69
2023/09/11 07:25:37;;;;;;;4.35;1.67;;;;;;;19.66;78.33;100810.16;5050457;28;20021;-69
2023/09/11 07:28:03;;;;;;;4.90;1.67;;;;;;;19.74;76.19;100795.34;5052024;28;20024;-64
2023/09/11 07:30:28;;;;;;;2.83;1.70;;;;;;;19.71;75.93;100767.41;5052083;28;20082;-67
2023/09/11 07:32:54;;;;;;;9.38;1.85;;;;;;;19.65;74.96;100721.97;5051527;28;20473;-66
2023/09/11 07:35:19;;;;;;;3.95;1.70;;;;;;;20.28;73.48;100800.78;5034457;28;20025;-68
2023/09/11 07:37:45;;;;;;;3.70;1.80;;;;;;;20.58;74.82;100806.09;5052199;28;20040;-67
2023/09/11 07:40:10;;;;;;;3.28;1.90;;;;;;;20.50;72.30;100806.97;5051408;28;20024;-65
2023/09/11 07:42:36;;;;;;;3.13;1.88;;;;;;;20.24;71.81;100735.22;5051778;28;20063;-67
2023/09/11 07:45:02;;;;;;;3.33;1.55;;;;;;;20.69;73.10;100801.72;5051845;28;20116;-68
2023/09/11 07:47:27;;;;;;;3.22;1.27;;;;;;;20.61;70.46;100804.34;5050631;28;20032;-67
2023/09/11 07:49:53;;;;;;;5.72;1.73;;;;;;;20.68;72.22;100794.72;5049072;28;20091;-69
2023/09/11 07:52:18;;;;;;;3.65;1.40;;;;;;;20.47;70.37;100730.03;5051681;28;20021;-67
2023/09/11 07:54:44;;;;;;;5.35;1.80;;;;;;;20.83;68.34;100723.91;5051497;28;20554;-68
2023/09/11 07:57:09;;;;;;;4.22;1.70;;;;;;;21.38;68.72;100799.94;5049420;28;20141;-65
2023/09/11 07:59:34;;;;;;;3.92;1.20;;;;;;;21.16;64.67;100721.25;5051688;28;20051;-68
2023/09/11 08:02:01;;;;;;;3.80;1.10;;;;;;;21.67;61.06;100789.41;5051474;28;20029;-68
2023/09/11 08:04:26;;;;;;;4.20;1.17;;;;;;;21.68;63.90;100783.22;5051474;28;20029;-66
2023/09/11 08:06:52;;;;;;;5.75;1.30;;;;;;;21.21;63.16;100714.22;5049332;28;20075;-66
2023/09/11 08:09:17;;;;;;;4.22;1.52;;;;;;;21.61;62.12;100776.28;5051371;28;20081;-67
2023/09/11 08:11:42;;;;;;;6.40;1.60;;;;;;;21.80;61.88;100777.06;5048642;28;20059;-66
2023/09/11 08:14:08;;;;;;;4.53;1.52;;;;;;;21.89;63.18;100769.13;5038971;28;20028;-65
2023/09/11 08:16:33;;;;;;;1.92;1.35;;;;;;;22.00;59.85;100768.22;5051634;28;20445;-69
2023/09/11 08:18:59;;;;;;;2.97;1.05;;;;;;;22.18;55.45;100764.59;5050272;28;20388;-68
2023/09/11 08:21:24;;;;;;;1.85;1.20;;;;;;;22.23;59.91;100763.69;5049766;28;20499;-65
2023/09/11 08:23:50;;;;;;;6.25;1.48;;;;;;;22.34;56.50;100758.34;5050499;28;20029;-69
2023/09/11 08:26:16;;;;;;;4.05;1.70;;;;;;;22.42;55.80;100764.47;5050930;28;20029;-67
2023/09/11 08:28:41;;;;;;;3.78;1.48;;;;;;;22.52;56.56;100769.63;5050321;28;20073;-67
2023/09/11 08:31:06;;;;;;;4.35;1.80;;;;;;;22.37;58.70;100753.09;5049541;28;20427;-66
2023/09/11 08:33:32;;;;;;;3.75;1.50;;;;;;;22.50;58.32;100763.53;5032758;28;20016;-68
2023/09/11 08:35:57;;;;;;;3.72;1.90;;;;;;;22.56;60.14;100760.84;5050554;28;20017;-67
2023/09/11 08:38:24;;;;;;;4.63;1.58;;;;;;;22.50;58.02;100766.16;5050564;28;20032;-69
2023/09/11 08:40:49;;;;;;;3.55;1.50;;;;;;;22.60;58.82;100767.81;5050902;28;20029;-65
2023/09/11 08:43:15;;;;;;;2.88;1.20;;;;;;;22.54;54.36;100755.59;5049476;28;20029;-68
2023/09/11 08:45:41;;;;;;;9.57;1.70;;;;;;;22.54;52.94;100737.19;5047729;28;20343;-67
2023/09/11 08:48:30;;;;;;;5.60;1.63;;;;;;;22.74;53.01;100750.16;5000295;28;20046;-67
2023/09/11 08:51:03;;;;;;;8.02;1.52;;;;;;;22.52;49.59;100678.44;5007772;28;20433;-69
2023/09/11 08:53:31;;;;;;;5.45;1.25;;;;;;;22.64;48.35;100664.28;5007835;28;20033;-69
2023/09/11 08:55:57;;;;;;;4.55;1.20;;;;;;;23.32;48.18;100731.19;5008594;28;20116;-66
2023/09/11 08:58:24;;;;;;;3.00;1.33;;;;;;;23.54;46.03;100732.66;5008007;28;20200;-66
2023/09/11 09:00:49;;;;;;;2.83;1.40;;;;;;;23.44;49.21;100715.22;5008062;28;20038;-66
2023/09/11 09:03:16;;;;;;;3.08;1.50;;;;;;;23.61;49.49;100727.31;5007734;28;20041;-65
2023/09/11 09:05:42;;;;;;;3.13;1.30;;;;;;;23.71;47.99;100716.63;5007886;28;20800;-67
2023/09/11 09:08:12;;;;;;;5.68;1.60;;;;;;;23.83;51.09;100728.75;5007894;28;20080;-66
2023/09/11 09:10:39;;;;;;;3.22;1.20;;;;;;;23.70;47.46;100719.28;5008060;28;20509;-69
2023/09/11 09:13:06;;;;;;;6.03;1.50;;;;;;;23.38;46.99;100647.66;5008217;28;20113;-66
2023/09/11 09:15:35;;;;;;;3.75;1.45;;;;;;;23.32;48.48;100625.81;5007700;28;20092;-69
2023/09/11 09:18:00;;;;;;;;;;;;;;;23.94;49.31;100704.91;5008455;28;20025;-66
2023/09/11 09:20:31;;;;;;;4.30;1.40;;;;;;;24.06;47.20;100704.75;5007502;28;20435;-68
2023/09/11 09:22:59;;;;;;;4.53;1.42;;;;;;;24.18;46.13;100692.25;5007629;28;20041;-69
2023/09/11 09:25:26;;;;;;;5.50;1.35;;;;;;;24.00;50.25;100693.41;5016755;28;20044;-69
2023/09/11 09:27:52;;;;;;;5.25;1.60;;;;;;;24.04;51.59;100695.97;5049928;28;20036;-68
2023/09/11 09:30:23;;;;;;;3.72;1.55;;;;;;;23.77;48.53;100625.19;5049690;28;20024;-67
2023/09/11 09:32:50;;;;;;;5.25;1.40;;;;;;;24.15;46.81;100673.81;5049441;28;20029;-66
2023/09/11 09:35:19;;;;;;;3.42;1.35;;;;;;;24.31;47.20;100675.34;5049456;28;20024;-68
2023/09/11 09:37:52;;;;;;;3.72;1.13;;;;;;;24.54;42.92;100681.97;5049827;28;20029;-64
2023/09/11 09:40:38;;;;;;;2.80;1.33;;;;;;;24.74;42.82;100675.50;5046630;28;20060;-67
2023/09/11 09:43:06;;;;;;;3.17;1.40;;;;;;;24.89;43.13;100677.00;5035539;28;20120;-65
2023/09/11 09:45:38;;;;;;;3.47;1.13;;;;;;;24.86;38.03;100633.00;5046134;28;20041;-67
2023/09/11 09:48:05;;;;;;;2.58;0.80;;;;;;;25.25;35.34;100680.66;5037349;28;20489;-65
2023/09/11 09:50:51;;;;;;;4.53;1.15;;;;;;;25.46;33.81;100676.72;5040777;28;20036;-69
2023/09/11 09:53:27;;;;;;;2.67;1.30;;;;;;;25.66;36.39;100670.13;5039855;28;20025;-64
2023/09/11 09:55:57;;;;;;;4.07;1.10;;;;;;;25.88;38.46;100664.34;5041765;28;20045;-67
2023/09/11 09:58:27;;;;;;;4.70;1.05;;;;;;;25.99;38.69;100664.94;5040914;28;20068;-69
2023/09/11 10:01:07;;;;;;;4.47;1.10;;;;;;;26.02;38.89;100661.34;5049525;28;20025;-67
2023/09/11 10:03:48;;;;;;;1.60;1.00;;;;;;;25.51;35.33;100602.63;5042534;28;20522;-67
2023/09/11 10:06:21;;;;;;;2.45;1.30;;;;;;;25.82;38.52;100657.41;5048602;28;20029;-65
2023/09/11 10:09:05;;;;;;;2.25;1.10;;;;;;;25.92;36.34;100651.00;5048923;28;20033;-66
2023/09/11 10:11:32;;;;;;;4.57;1.10;;;;;;;26.10;36.67;100656.78;5049384;28;20686;-70
2023/09/11 10:13:59;;;;;;;2.05;1.00;;;;;;;26.26;35.73;100652.84;5048919;28;20025;-65
2023/09/11 10:16:26;;;;;;;2.38;0.90;;;;;;;26.39;36.95;100652.53;5049261;28;20021;-66
2023/09/11 10:18:56;;;;;;;4.85;0.90;;;;;;;26.59;35.40;100644.94;5049399;28;20091;-69
2023/09/11 10:21:22;;;;;;;4.13;0.90;;;;;;;26.36;35.04;100597.91;5049213;28;20087;-66
2023/09/11 10:23:47;;;;;;;1.63;0.95;;;;;;;26.44;35.57;100573.84;5013958;28;20041;-67
2023/09/11 10:26:31;;;;;;;1.98;0.90;;;;;;;27.02;33.26;100637.59;5046191;28;20033;-69
2023/09/11 10:29:03;;;;;;;3.90;0.90;;;;;;;27.11;32.54;100631.16;5048121;28;20069;-66
2023/09/11 10:31:35;;;;;;;4.47;1.13;;;;;;;26.73;36.96;100574.81;5049170;28;20108;-65
2023/09/11 10:34:02;;;;;;;5.03;1.40;;;;;;;27.01;33.03;100629.69;5048969;28;20035;-64
2023/09/11 10:36:34;;;;;;;2.90;1.25;;;;;;;26.91;37.20;100635.25;5048773;28;20412;-69
2023/09/11 10:39:02;;;;;;;2.72;1.10;;;;;;;27.04;35.70;100632.25;5039320;28;20040;-67
2023/09/11 10:41:28;;;;;;;3.30;0.98;;;;;;;27.20;35.73;100620.28;5047938;28;20397;-68
2023/09/11 10:43:54;;;;;;;2.92;0.85;;;;;;;26.92;34.19;100568.09;5049314;28;20037;-67
2023/09/11 10:46:22;;;;;;;2.85;1.13;;;;;;;27.36;36.00;100617.19;5048956;28;20024;-70
2023/09/11 10:48:50;;;;;;;5.20;1.80;;;;;;;26.62;33.32;100607.78;5049323;28;20067;-64
2023/09/11 10:51:16;;;;;;;3.60;0.95;;;;;;;26.76;33.13;100572.97;5048846;28;20021;-66
2023/09/11 10:53:42;;;;;;;3.30;1.27;;;;;;;27.20;35.19;100601.72;5049109;28;20095;-66
2023/09/11 10:56:07;;;;;;;3.60;1.20;;;;;;;27.44;34.57;100615.16;5046096;28;20025;-66
2023/09/11 10:58:34;;;;;;;2.22;0.90;;;;;;;27.65;31.74;100610.97;5060707;28;20480;-66
2023/09/11 11:01:03;;;;;;;3.60;1.10;;;;;;;27.76;34.89;100595.59;5050855;28;20032;-69
2023/09/11 11:03:30;;;;;;;2.42;0.95;;;;;;;27.45;31.68;100542.66;5052494;28;20669;-67
2023/09/11 11:05:58;;;;;;;2.80;1.17;;;;;;;27.76;30.59;100602.69;5052769;28;20048;-69
2023/09/11 11:08:24;;;;;;;2.27;0.90;;;;;;;27.84;30.24;100610.38;5052122;28;20075;-67
2023/09/11 11:10:51;;;;;;;3.10;0.90;;;;;;;27.72;32.39;100606.34;5051928;28;20024;-66
2023/09/11 11:13:17;;;;;;;3.13;0.82;;;;;;;27.72;32.71;100586.00;5052639;28;20025;-64
2023/09/11 11:15:43;;;;;;;3.25;1.00;;;;;;;27.96;32.77;100587.88;5052413;28;20029;-66
2023/09/11 11:18:24;;;;;;;1.98;1.05;;;;;;;27.97;32.03;100586.97;5052610;28;20025;-64
2023/09/11 11:20:59;;;;;;;7.25;1.20;;;;;;;28.06;28.78;100581.38;5052276;28;20444;-66
2023/09/11 11:23:26;;;;;;;5.35;0.80;;;;;;;28.05;30.45;100584.94;5051772;28;20052;-65